Time;durP1;ratioP1;P1;durP2;ratioP2;P2;SDS_P1;SDS_P2;PMS_P1;PMS_P2;Temp;Humidity;BMP_temperature;BMP_pressure;BME280_temperature;BME280_humidity;BME280_pressure;Samples;Min_cycle;Max_cycle;Signal;HPM_P1;HPM_P2
2020/12/24 00:00:05;;;;;;;23.80;18.73;;;;;;;8.51;89.69;98266.09;4960956;28;20027;-62
2020/12/24 00:02:31;;;;;;;26.80;19.87;;;;;;;8.42;88.90;98268.78;4976219;28;20046;-62
2020/12/24 00:04:56;;;;;;;22.53;17.33;;;;;;;8.40;88.94;98265.41;4978027;28;20042;-62
2020/12/24 00:07:22;;;;;;;27.80;19.43;;;;;;;8.42;88.54;98268.78;4976831;28;20065;-62
2020/12/24 00:09:47;;;;;;;28.53;20.07;;;;;;;8.25;88.71;98274.16;4977980;28;20031;-61
2020/12/24 00:12:13;;;;;;;34.10;22.20;;;;;;;8.25;89.71;98271.59;4976572;28;20035;-61
2020/12/24 00:14:39;;;;;;;29.03;21.97;;;;;;;8.20;89.57;98286.13;4976916;28;20031;-61
2020/12/24 00:17:05;;;;;;;34.33;23.93;;;;;;;8.11;89.45;98272.66;4978258;28;20039;-61
2020/12/24 00:19:31;;;;;;;29.60;22.27;;;;;;;8.06;89.68;98269.34;4954463;28;20118;-61
2020/12/24 00:21:56;;;;;;;25.00;18.30;;;;;;;7.96;90.69;98278.84;4977869;28;20050;-61
2020/12/24 00:24:21;;;;;;;26.43;17.97;;;;;;;8.08;89.97;98267.59;4977112;28;20347;-61
2020/12/24 00:26:47;;;;;;;23.80;18.00;;;;;;;8.01;90.56;98266.88;4974140;28;20035;-61
2020/12/24 00:29:12;;;;;;;20.40;15.90;;;;;;;8.02;90.21;98260.88;4958872;29;20031;-60
2020/12/24 00:31:38;;;;;;;25.60;18.60;;;;;;;7.92;90.84;98267.00;4957812;29;20031;-61
2020/12/24 00:34:04;;;;;;;21.73;16.90;;;;;;;7.98;90.25;98260.94;4976135;28;20448;-61
2020/12/24 00:36:30;;;;;;;21.47;17.10;;;;;;;7.88;90.85;98262.78;4977339;28;20041;-61
2020/12/24 00:38:56;;;;;;;25.93;18.60;;;;;;;7.85;90.01;98259.44;4976485;28;20035;-61
2020/12/24 00:41:22;;;;;;;25.23;18.03;;;;;;;7.84;90.38;98255.19;4977274;28;20621;-61
2020/12/24 00:43:49;;;;;;;20.37;17.37;;;;;;;7.84;90.90;98258.59;4976187;28;20058;-61
2020/12/24 00:46:14;;;;;;;29.00;19.17;;;;;;;7.74;90.59;98257.03;4976733;28;20046;-61
2020/12/24 00:48:40;;;;;;;29.97;19.63;;;;;;;7.79;90.47;98256.13;4977936;28;20034;-61
2020/12/24 00:51:05;;;;;;;24.50;19.70;;;;;;;7.76;90.85;98256.16;4960345;28;20348;-62
2020/12/24 00:53:31;;;;;;;22.77;19.40;;;;;;;7.73;90.79;98253.63;4976844;28;20042;-61
2020/12/24 00:55:56;;;;;;;25.90;20.70;;;;;;;7.74;90.31;98251.94;4977582;28;20039;-61
2020/12/24 00:58:22;;;;;;;24.07;19.80;;;;;;;7.67;90.76;98243.53;4976726;28;20046;-61
2020/12/24 01:00:47;;;;;;;24.40;20.90;;;;;;;7.61;91.08;98245.31;4976679;28;20030;-61
2020/12/24 01:03:12;;;;;;;23.57;18.30;;;;;;;7.64;90.71;98248.66;4977443;28;20035;-61
2020/12/24 01:05:38;;;;;;;23.20;18.73;;;;;;;7.64;90.69;98258.00;4976975;28;20034;-61
2020/12/24 01:08:03;;;;;;;28.17;19.67;;;;;;;7.64;91.40;98253.75;4968471;28;20097;-61
2020/12/24 01:10:29;;;;;;;23.83;17.37;;;;;;;7.63;90.85;98249.53;4957992;29;20062;-61
2020/12/24 01:12:54;;;;;;;25.90;20.43;;;;;;;7.55;91.78;98259.00;4956335;28;20035;-61
2020/12/24 01:15:20;;;;;;;28.17;21.60;;;;;;;7.64;91.50;98268.22;4956081;28;20042;-61
2020/12/24 01:17:45;;;;;;;25.80;19.57;;;;;;;7.55;91.60;98270.91;4958380;29;20333;-61
2020/12/24 01:20:10;;;;;;;23.10;19.03;;;;;;;7.59;92.28;98259.81;4965610;28;20037;-61
2020/12/24 01:22:39;;;;;;;26.63;19.23;;;;;;;7.63;91.65;98256.34;4975829;28;20507;-61
2020/12/24 01:25:04;;;;;;;25.83;18.83;;;;;;;7.55;91.34;98259.00;4976720;28;20073;-62
2020/12/24 01:27:30;;;;;;;25.73;19.97;;;;;;;7.58;91.50;98241.09;4975484;28;20062;-61
2020/12/24 01:29:55;;;;;;;27.07;20.23;;;;;;;7.63;91.78;98259.75;4976988;28;20407;-61
2020/12/24 01:32:21;;;;;;;23.67;18.53;;;;;;;7.68;90.85;98236.72;4975154;28;20035;-62
2020/12/24 01:34:46;;;;;;;24.83;18.67;;;;;;;7.66;91.03;98235.88;4965201;28;20042;-61
2020/12/24 01:37:12;;;;;;;23.93;19.50;;;;;;;7.61;92.02;98265.72;4969259;28;20043;-61
2020/12/24 01:39:37;;;;;;;27.00;19.87;;;;;;;7.64;91.70;98224.84;4975319;28;20038;-61
2020/12/24 01:42:03;;;;;;;25.43;20.20;;;;;;;7.66;91.34;98231.63;4974513;28;20031;-61
2020/12/24 01:44:28;;;;;;;24.00;20.20;;;;;;;7.60;91.34;98239.34;4976630;28;20041;-61
2020/12/24 01:46:54;;;;;;;28.07;19.57;;;;;;;7.66;91.35;98235.88;4974331;28;20034;-61
2020/12/24 01:49:20;;;;;;;29.00;22.23;;;;;;;7.56;91.48;98232.59;4976852;28;20038;-61
2020/12/24 01:51:54;;;;;;;25.63;20.37;;;;;;;7.62;91.78;98224.88;4974885;28;20046;-61
2020/12/24 01:54:22;;;;;;;25.58;21.02;;;;;;;7.67;91.40;98219.72;4957150;29;20110;-61
2020/12/24 01:56:48;;;;;;;25.10;20.57;;;;;;;7.65;91.29;98213.78;4956110;29;20023;-61
2020/12/24 01:59:16;;;;;;;26.33;20.70;;;;;;;7.73;90.93;98210.25;4956452;28;20023;-61
2020/12/24 02:01:46;;;;;;;26.40;19.73;;;;;;;7.73;90.87;98211.97;4955572;28;20019;-61
2020/12/24 02:04:12;;;;;;;25.50;19.43;;;;;;;7.67;91.49;98207.81;4955962;29;20042;-61
2020/12/24 02:06:42;;;;;;;25.93;20.37;;;;;;;7.68;91.06;98201.81;4966700;28;20030;-61
2020/12/24 02:09:08;;;;;;;24.47;18.40;;;;;;;7.69;91.48;98200.13;4975495;28;20107;-61
2020/12/24 02:11:34;;;;;;;25.53;20.83;;;;;;;7.62;91.24;98196.81;4974415;28;20027;-61
2020/12/24 02:14:00;;;;;;;24.57;19.77;;;;;;;7.50;91.64;98196.16;4975191;28;20022;-61
2020/12/24 02:16:26;;;;;;;30.17;20.27;;;;;;;7.42;91.87;98190.31;4974429;28;20461;-61
2020/12/24 02:18:52;;;;;;;25.97;19.53;;;;;;;7.39;91.15;98193.72;4975325;28;20022;-61
2020/12/24 02:21:17;;;;;;;28.57;20.27;;;;;;;7.44;91.18;98181.78;4973476;28;20061;-61
2020/12/24 02:23:43;;;;;;;23.67;18.83;;;;;;;7.39;91.48;98175.88;4975241;28;20448;-61
2020/12/24 02:26:08;;;;;;;25.47;19.83;;;;;;;7.39;91.43;98168.22;4956446;28;20107;-61
2020/12/24 02:28:34;;;;;;;24.47;18.57;;;;;;;7.41;91.44;98158.03;4975600;28;20165;-61
2020/12/24 02:31:01;;;;;;;26.37;18.73;;;;;;;7.46;91.14;98159.66;4972005;28;20651;-61
2020/12/24 02:33:26;;;;;;;26.67;19.33;;;;;;;7.45;91.67;98160.50;4956127;29;20027;-61
2020/12/24 02:35:52;;;;;;;25.87;19.13;;;;;;;7.46;91.20;98154.56;4954735;28;20023;-61
2020/12/24 02:38:17;;;;;;;26.43;19.83;;;;;;;7.40;90.71;98157.19;4956759;29;20027;-61
2020/12/24 02:40:42;;;;;;;24.93;20.13;;;;;;;7.41;91.25;98147.81;4955080;29;20436;-61
2020/12/24 02:43:08;;;;;;;25.77;19.67;;;;;;;7.41;90.17;98146.13;4955458;28;20023;-61
2020/12/24 02:45:33;;;;;;;26.93;19.80;;;;;;;7.36;90.35;98135.13;4955176;29;20102;-61
2020/12/24 02:47:59;;;;;;;27.13;19.47;;;;;;;7.38;90.24;98130.88;4970834;28;20088;-61
2020/12/24 02:50:24;;;;;;;28.23;19.73;;;;;;;7.37;90.06;98136.81;4974935;28;20447;-61
2020/12/24 02:52:49;;;;;;;28.00;21.57;;;;;;;7.34;90.65;98131.78;4959837;28;20125;-61
2020/12/24 02:55:16;;;;;;;30.60;20.87;;;;;;;7.34;90.36;98124.13;4955154;29;20395;-62
2020/12/24 02:57:41;;;;;;;26.27;19.43;;;;;;;7.31;90.79;98117.34;4949282;28;20121;-62
2020/12/24 03:00:10;;;;;;;30.50;21.60;;;;;;;7.39;89.78;98119.78;4975235;28;20118;-61
2020/12/24 03:02:37;;;;;;;28.77;20.83;;;;;;;7.38;89.57;98114.72;4974701;28;20026;-61
2020/12/24 03:05:04;;;;;;;30.83;20.77;;;;;;;7.39;88.85;98116.38;4975582;28;20023;-62
2020/12/24 03:07:29;;;;;;;25.17;19.30;;;;;;;7.30;89.42;98108.00;4966769;28;20057;-62
2020/12/24 03:09:55;;;;;;;25.50;21.43;;;;;;;7.38;89.08;98110.47;4962949;28;20455;-61
2020/12/24 03:12:24;;;;;;;28.33;20.13;;;;;;;7.38;88.79;98112.19;4967850;28;20340;-61
2020/12/24 03:14:53;;;;;;;24.63;19.03;;;;;;;7.39;88.39;98109.59;4962219;28;20420;-61
2020/12/24 03:17:20;;;;;;;29.60;21.53;;;;;;;7.40;88.58;98118.91;4972087;28;20026;-62
2020/12/24 03:19:46;;;;;;;27.23;20.37;;;;;;;7.33;89.08;98110.53;4974505;28;20677;-61
2020/12/24 03:22:11;;;;;;;27.13;21.47;;;;;;;7.30;88.46;98108.00;4974222;28;20194;-61
2020/12/24 03:24:37;;;;;;;29.17;20.80;;;;;;;7.26;88.91;98111.47;4975497;28;20027;-61
2020/12/24 03:27:02;;;;;;;28.60;20.90;;;;;;;7.27;89.57;98110.59;4974007;28;20045;-61
2020/12/24 03:29:29;;;;;;;26.67;20.83;;;;;;;7.32;89.29;98113.94;4957902;28;20031;-61
2020/12/24 03:31:54;;;;;;;27.80;20.10;;;;;;;7.26;88.73;98103.81;4958531;28;20448;-61
2020/12/24 03:34:20;;;;;;;30.90;21.40;;;;;;;7.27;89.41;98113.16;4948091;28;20058;-61
2020/12/24 03:36:45;;;;;;;29.10;22.10;;;;;;;7.27;89.30;98109.75;4958256;28;20065;-62
2020/12/24 03:39:10;;;;;;;28.23;21.87;;;;;;;7.25;89.26;98109.81;4955514;28;20024;-62
2020/12/24 03:41:36;;;;;;;26.33;19.67;;;;;;;7.23;89.27;98114.06;4939571;29;20111;-61
2020/12/24 03:44:02;;;;;;;30.87;21.30;;;;;;;7.15;89.51;98112.50;4938479;28;20022;-61
2020/12/24 03:46:27;;;;;;;28.60;21.23;;;;;;;7.12;89.30;98107.44;4939282;29;20508;-61
2020/12/24 03:48:53;;;;;;;29.70;21.50;;;;;;;7.08;89.66;98109.19;4938224;28;20071;-61
2020/12/24 03:51:19;;;;;;;27.63;20.53;;;;;;;7.02;90.07;98116.91;4955225;29;20338;-61
2020/12/24 03:53:44;;;;;;;31.70;21.93;;;;;;;7.02;90.53;98122.00;4969230;28;20126;-62
2020/12/24 03:56:09;;;;;;;31.67;22.50;;;;;;;7.04;90.43;98122.84;4977756;28;20027;-61
2020/12/24 03:58:35;;;;;;;27.80;21.87;;;;;;;7.06;90.13;98121.09;4976919;28;20034;-61
2020/12/24 04:01:00;;;;;;;29.13;21.93;;;;;;;7.02;90.14;98122.00;4977761;28;20031;-61
2020/12/24 04:03:26;;;;;;;28.87;21.87;;;;;;;6.97;90.98;98112.72;4975608;28;20415;-61
2020/12/24 04:05:51;;;;;;;29.77;22.57;;;;;;;6.88;91.37;98117.09;4976092;28;20019;-61
2020/12/24 04:08:16;;;;;;;30.00;22.47;;;;;;;6.95;91.15;98117.88;4969933;28;20403;-61
2020/12/24 04:10:42;;;;;;;32.17;22.93;;;;;;;6.94;90.68;98128.06;4939575;29;20031;-61
2020/12/24 04:13:07;;;;;;;30.67;21.73;;;;;;;6.94;91.15;98117.88;4959088;28;20026;-62
2020/12/24 04:15:33;;;;;;;30.23;22.73;;;;;;;6.94;90.92;98125.50;4978012;28;20135;-61
2020/12/24 04:17:58;;;;;;;28.10;21.83;;;;;;;6.96;90.51;98127.16;4976337;28;20110;-61
2020/12/24 04:20:23;;;;;;;28.40;21.80;;;;;;;6.98;90.94;98120.38;4950827;29;20474;-61
2020/12/24 04:22:49;;;;;;;31.00;21.07;;;;;;;6.93;90.26;98118.72;4975681;28;20058;-62
2020/12/24 04:25:14;;;;;;;31.97;21.93;;;;;;;6.92;90.18;98124.72;4974582;28;20102;-61
2020/12/24 04:27:40;;;;;;;24.93;19.87;;;;;;;6.91;90.42;98128.13;4977175;28;20023;-61
2020/12/24 04:30:06;;;;;;;25.37;18.87;;;;;;;6.84;90.14;98122.22;4967855;28;20027;-61
2020/12/24 04:32:33;;;;;;;27.83;20.83;;;;;;;6.92;90.41;98122.97;4957885;29;20023;-62
2020/12/24 04:34:59;;;;;;;25.43;20.13;;;;;;;6.86;90.09;98112.88;4964891;28;20031;-61
2020/12/24 04:37:24;;;;;;;27.20;19.87;;;;;;;6.86;90.15;98116.28;4960934;28;20033;-61
2020/12/24 04:39:50;;;;;;;24.70;18.07;;;;;;;6.84;90.47;98114.59;4976463;28;20023;-61
2020/12/24 04:42:16;;;;;;;30.00;20.03;;;;;;;6.71;90.12;98121.53;4977051;28;20109;-61
2020/12/24 04:44:42;;;;;;;28.10;20.07;;;;;;;6.71;90.65;98120.69;4975931;28;20014;-61
2020/12/24 04:47:08;;;;;;;30.97;21.03;;;;;;;6.73;90.76;98124.06;4976892;28;20429;-60
2020/12/24 04:49:34;;;;;;;27.87;20.30;;;;;;;6.73;90.98;98113.88;4975265;28;20121;-60
2020/12/24 04:52:03;;;;;;;28.37;20.47;;;;;;;6.75;91.01;98112.16;4977935;28;20027;-60
2020/12/24 04:54:31;;;;;;;25.77;18.73;;;;;;;6.75;91.18;98117.25;4975657;28;20023;-60
2020/12/24 04:57:05;;;;;;;29.67;20.47;;;;;;;6.71;90.66;98126.63;4977369;28;20022;-61
2020/12/24 04:59:31;;;;;;;27.50;20.20;;;;;;;6.63;91.04;98110.59;4959156;28;20027;-60
2020/12/24 05:01:56;;;;;;;26.20;20.90;;;;;;;6.57;90.88;98120.03;4976520;28;20042;-60
2020/12/24 05:04:22;;;;;;;28.13;20.87;;;;;;;6.62;91.04;98113.19;4959747;28;20027;-60
2020/12/24 05:06:48;;;;;;;26.07;19.93;;;;;;;6.64;90.64;98114.00;4959558;28;20031;-60
2020/12/24 05:09:15;;;;;;;24.30;19.33;;;;;;;6.70;90.12;98107.13;4940382;29;20400;-60
2020/12/24 05:11:44;;;;;;;25.03;19.53;;;;;;;6.73;90.02;98116.44;4970891;28;20092;-60
2020/12/24 05:14:19;;;;;;;30.40;20.23;;;;;;;6.71;90.35;98115.59;4975860;28;20135;-60
2020/12/24 05:17:01;;;;;;;25.63;20.53;;;;;;;6.74;90.52;98116.44;4975569;28;20026;-60
2020/12/24 05:19:28;;;;;;;26.20;19.43;;;;;;;6.73;90.40;98118.97;4976287;28;20035;-60
2020/12/24 05:21:54;;;;;;;26.27;18.77;;;;;;;6.72;90.33;98115.59;4963948;28;20047;-64
2020/12/24 05:24:23;;;;;;;26.27;19.90;;;;;;;6.71;90.41;98115.59;4957156;29;20054;-61
2020/12/24 05:26:49;;;;;;;25.83;20.90;;;;;;;6.70;89.95;98114.78;4966457;28;20023;-61
2020/12/24 05:29:15;;;;;;;27.17;20.87;;;;;;;6.71;90.16;98107.97;4977124;28;20102;-61
2020/12/24 05:31:40;;;;;;;31.13;23.93;;;;;;;6.77;90.08;98105.34;4975303;28;20417;-61
2020/12/24 05:34:05;;;;;;;33.67;26.33;;;;;;;6.68;89.81;98100.38;4976413;28;20034;-61
2020/12/24 05:36:31;;;;;;;31.30;23.40;;;;;;;6.71;90.41;98106.25;4975597;28;20086;-61
2020/12/24 05:38:56;;;;;;;27.27;21.67;;;;;;;6.71;90.43;98107.97;4976570;28;20026;-61
2020/12/24 05:41:36;;;;;;;27.27;20.37;;;;;;;6.77;89.91;98113.00;4971100;28;20027;-61
2020/12/24 05:44:09;;;;;;;28.07;20.90;;;;;;;6.83;89.62;98121.38;4948844;29;20460;-61
2020/12/24 05:46:43;;;;;;;29.77;20.43;;;;;;;6.82;89.86;98118.88;4956157;29;20081;-61
2020/12/24 05:49:14;;;;;;;26.87;18.57;;;;;;;6.83;89.73;98111.19;4968831;28;20031;-61
2020/12/24 05:51:39;;;;;;;26.53;20.67;;;;;;;6.80;90.10;98111.25;4975764;28;20033;-61
2020/12/24 05:54:06;;;;;;;28.73;19.93;;;;;;;6.83;90.00;98105.28;4974770;28;20027;-61
2020/12/24 05:56:37;;;;;;;24.83;18.00;;;;;;;6.84;88.99;98101.84;4975647;28;20086;-61
2020/12/24 05:59:04;;;;;;;25.80;18.97;;;;;;;6.80;89.14;98095.97;4973948;28;20023;-61
2020/12/24 06:01:38;;;;;;;26.23;18.63;;;;;;;6.83;88.86;98093.34;4974122;28;20027;-61
2020/12/24 06:04:05;;;;;;;25.83;18.93;;;;;;;6.84;89.18;98086.56;4974961;28;20034;-61
2020/12/24 06:06:59;;;;;;;23.30;17.23;;;;;;;6.80;89.37;98087.47;4974525;28;20026;-61
2020/12/24 06:09:35;;;;;;;24.30;18.33;;;;;;;6.78;89.50;98084.97;4975245;28;20023;-61
2020/12/24 06:12:22;;;;;;;20.67;15.30;;;;;;;6.82;89.24;98086.59;4974562;28;20026;-61
2020/12/24 06:14:52;;;;;;;21.67;16.17;;;;;;;6.82;89.37;98081.50;4974930;28;20030;-61
2020/12/24 06:17:20;;;;;;;21.27;15.77;;;;;;;6.84;89.21;98079.78;4971021;28;20019;-61
2020/12/24 06:19:46;;;;;;;20.37;16.37;;;;;;;6.78;89.53;98076.47;4974986;28;20491;-61
2020/12/24 06:22:13;;;;;;;23.10;16.23;;;;;;;6.73;89.45;98084.16;4974028;28;20058;-61
2020/12/24 06:24:44;;;;;;;25.30;16.20;;;;;;;6.78;89.26;98086.66;4973782;28;20027;-61
2020/12/24 06:27:52;;;;;;;22.90;16.00;;;;;;;6.85;88.81;98093.34;4974943;28;20050;-61
2020/12/24 06:30:26;;;;;;;23.07;15.90;;;;;;;6.82;89.10;98090.84;4964163;28;20041;-61
2020/12/24 06:32:53;;;;;;;21.25;14.85;;;;;;;6.85;88.45;98089.09;4974650;28;20050;-61
2020/12/24 06:35:42;;;;;;;21.70;15.17;;;;;;;6.91;88.61;98085.63;4974297;28;20415;-61
2020/12/24 06:38:09;;;;;;;17.47;14.03;;;;;;;6.95;88.27;98078.78;4974703;28;20066;-61
2020/12/24 06:40:36;;;;;;;19.97;14.70;;;;;;;6.98;88.05;98069.41;4974581;28;20035;-61
2020/12/24 06:43:03;;;;;;;19.13;14.63;;;;;;;7.09;87.32;98072.63;4957134;28;20041;-61
2020/12/24 06:45:29;;;;;;;16.87;13.03;;;;;;;7.07;87.12;98061.63;4957863;28;20029;-61
2020/12/24 06:48:16;;;;;;;20.87;14.03;;;;;;;7.12;87.29;98062.41;4957275;28;20030;-61
2020/12/24 06:51:04;;;;;;;20.83;14.93;;;;;;;7.12;87.39;98056.47;4974776;28;20057;-62
2020/12/24 06:53:37;;;;;;;20.13;14.43;;;;;;;7.17;88.18;98052.16;4974527;28;20452;-61
2020/12/24 06:56:09;;;;;;;19.17;14.80;;;;;;;7.18;88.16;98054.66;4974286;28;20027;-61
2020/12/24 06:58:38;;;;;;;21.60;14.23;;;;;;;7.20;87.94;98064.84;4974418;28;20042;-61
2020/12/24 07:01:03;;;;;;;18.40;13.87;;;;;;;7.20;87.88;98065.69;4974427;28;20439;-61
2020/12/24 07:03:30;;;;;;;18.80;14.20;;;;;;;7.22;88.01;98063.94;4974176;28;20106;-61
2020/12/24 07:05:56;;;;;;;19.97;14.73;;;;;;;7.14;87.88;98063.22;4957636;28;20034;-61
2020/12/24 07:08:33;;;;;;;19.47;15.03;;;;;;;7.25;87.83;98066.47;4961355;28;20047;-61
2020/12/24 07:11:01;;;;;;;21.23;15.53;;;;;;;7.22;88.26;98063.09;4955064;28;20034;-61
2020/12/24 07:13:43;;;;;;;24.47;15.67;;;;;;;7.24;88.10;98072.41;4969259;28;20062;-61
2020/12/24 07:16:11;;;;;;;22.13;16.13;;;;;;;7.25;88.09;98068.16;4970774;28;20034;-60
2020/12/24 07:18:39;;;;;;;24.03;16.73;;;;;;;7.29;87.70;98074.91;4977568;28;20039;-60
2020/12/24 07:21:09;;;;;;;23.90;16.57;;;;;;;7.28;87.91;98081.72;4977391;28;20046;-62
2020/12/24 07:23:37;;;;;;;46.30;26.27;;;;;;;7.31;87.83;98084.19;4978508;28;20027;-62
2020/12/24 07:26:06;;;;;;;52.67;29.57;;;;;;;7.25;87.60;98089.41;4970764;28;20030;-60
2020/12/24 07:28:33;;;;;;;45.63;26.00;;;;;;;7.26;88.45;98080.88;4972663;28;20476;-61
2020/12/24 07:31:01;;;;;;;26.30;19.00;;;;;;;7.32;88.40;98083.34;4978599;28;20045;-62
2020/12/24 07:33:27;;;;;;;22.07;17.47;;;;;;;7.32;88.11;98091.00;4978034;28;20125;-60
2020/12/24 07:35:53;;;;;;;22.90;17.60;;;;;;;7.27;87.72;98090.22;4979216;28;20034;-60
2020/12/24 07:38:23;;;;;;;24.53;18.40;;;;;;;7.27;87.30;98085.13;4977680;28;20462;-61
2020/12/24 07:40:49;;;;;;;22.50;16.57;;;;;;;7.26;87.71;98088.53;4973282;28;20488;-60
2020/12/24 07:43:15;;;;;;;19.27;14.93;;;;;;;7.24;87.63;98097.06;4956108;28;20029;-61
2020/12/24 07:45:42;;;;;;;20.07;14.83;;;;;;;7.29;87.44;98110.59;4958723;29;20389;-61
2020/12/24 07:48:20;;;;;;;19.27;15.73;;;;;;;7.30;87.33;98113.09;4959268;28;20188;-61
2020/12/24 07:50:47;;;;;;;21.80;16.03;;;;;;;7.27;87.25;98110.59;4958491;29;20476;-61
2020/12/24 07:53:17;;;;;;;23.57;16.87;;;;;;;7.25;87.49;98106.41;4954010;28;20027;-61
2020/12/24 07:55:42;;;;;;;24.90;17.70;;;;;;;7.25;87.30;98102.16;4953994;29;20023;-61
2020/12/24 07:58:09;;;;;;;23.30;17.73;;;;;;;7.28;87.48;98108.91;4957254;28;20049;-61
2020/12/24 08:00:39;;;;;;;23.10;19.10;;;;;;;7.25;87.72;98114.91;4940574;29;20035;-61
2020/12/24 08:03:05;;;;;;;28.63;19.40;;;;;;;7.17;88.53;98121.78;4955963;28;20033;-60
2020/12/24 08:05:30;;;;;;;26.50;19.87;;;;;;;7.22;87.45;98121.72;4953118;29;20102;-60
2020/12/24 08:07:55;;;;;;;27.63;20.73;;;;;;;7.30;87.58;98125.00;4957107;29;20098;-60
2020/12/24 08:10:21;;;;;;;25.57;19.67;;;;;;;7.34;87.15;98122.41;4943224;28;20038;-61
2020/12/24 08:12:46;;;;;;;28.67;21.53;;;;;;;7.32;87.34;98119.03;4957782;29;20024;-61
2020/12/24 08:15:17;;;;;;;27.80;20.67;;;;;;;7.39;87.96;98121.47;4952615;28;20037;-61
2020/12/24 08:17:50;;;;;;;27.40;19.70;;;;;;;7.24;87.36;98133.59;4957570;29;20035;-60
2020/12/24 08:20:18;;;;;;;24.70;19.07;;;;;;;7.14;88.76;98131.19;4957694;28;20027;-60
2020/12/24 08:23:00;;;;;;;26.47;18.70;;;;;;;7.22;87.95;98132.78;4956495;28;20043;-60
2020/12/24 08:25:28;;;;;;;28.80;20.60;;;;;;;7.34;87.56;98130.03;4942837;28;20043;-63
2020/12/24 08:27:54;;;;;;;25.07;19.53;;;;;;;7.33;88.40;98123.28;4954219;29;20031;-60
2020/12/24 08:30:20;;;;;;;26.90;19.97;;;;;;;7.38;87.86;98125.78;4945816;28;20027;-60
2020/12/24 08:32:46;;;;;;;27.57;19.20;;;;;;;7.42;87.78;98127.41;4957001;28;20035;-60
2020/12/24 08:35:13;;;;;;;25.20;18.53;;;;;;;7.46;87.86;98129.06;4953202;28;20046;-61
2020/12/24 08:37:39;;;;;;;23.77;17.63;;;;;;;7.46;87.64;98134.16;4940747;29;20037;-62
2020/12/24 08:40:35;;;;;;;25.93;17.10;;;;;;;7.44;87.93;98140.13;4956753;28;20042;-62
2020/12/24 08:43:00;;;;;;;24.87;16.83;;;;;;;7.42;87.71;98149.50;4955755;28;20456;-62
2020/12/24 08:45:27;;;;;;;22.20;15.73;;;;;;;7.42;87.94;98150.38;4942804;28;20035;-62
2020/12/24 08:47:52;;;;;;;22.43;16.57;;;;;;;7.43;87.53;98161.38;4937696;29;20532;-62
2020/12/24 08:50:31;;;;;;;23.40;17.70;;;;;;;7.46;87.36;98153.72;4948438;29;20110;-62
2020/12/24 08:52:56;;;;;;;21.37;18.00;;;;;;;7.41;87.78;98156.31;4952690;29;20102;-62
2020/12/24 08:55:27;;;;;;;29.80;21.20;;;;;;;7.43;87.62;98164.78;4953065;29;20019;-62
2020/12/24 08:57:52;;;;;;;35.43;23.70;;;;;;;7.37;88.07;98171.69;4938024;29;20027;-63
2020/12/24 09:00:18;;;;;;;33.13;22.27;;;;;;;7.40;88.03;98169.09;4949299;29;20038;-62
2020/12/24 09:02:43;;;;;;;28.40;21.57;;;;;;;7.44;88.86;98174.13;4955831;28;20027;-62
2020/12/24 09:05:09;;;;;;;26.13;19.13;;;;;;;7.51;88.13;98172.34;4956038;28;20091;-62
2020/12/24 09:07:42;;;;;;;27.47;20.90;;;;;;;7.58;88.37;98171.38;4956835;28;20420;-61
2020/12/24 09:10:20;;;;;;;29.07;21.93;;;;;;;7.61;88.19;98164.53;4956258;28;20054;-61
2020/12/24 09:12:46;;;;;;;27.03;21.10;;;;;;;7.62;88.80;98178.13;4957789;28;20039;-61
2020/12/24 09:15:13;;;;;;;28.47;21.80;;;;;;;7.54;88.64;98178.25;4956479;28;20046;-61
2020/12/24 09:17:50;;;;;;;31.10;22.47;;;;;;;7.58;88.66;98169.66;4957018;28;20106;-61
2020/12/24 09:20:24;;;;;;;32.53;23.43;;;;;;;7.57;89.45;98172.25;4956431;28;20031;-61
2020/12/24 09:22:51;;;;;;;32.17;24.37;;;;;;;7.51;88.99;98174.91;4974903;28;20387;-63
2020/12/24 09:25:31;;;;;;;34.50;24.30;;;;;;;7.41;88.99;98173.31;4975998;28;20023;-61
2020/12/24 09:27:57;;;;;;;38.97;28.53;;;;;;;7.37;89.11;98172.53;4976321;28;20034;-61
2020/12/24 09:30:23;;;;;;;36.03;28.37;;;;;;;7.32;89.76;98162.38;4975418;28;20027;-62
2020/12/24 09:32:56;;;;;;;39.77;31.10;;;;;;;7.41;89.46;98155.47;4945994;28;20034;-62
2020/12/24 09:35:23;;;;;;;32.67;26.93;;;;;;;7.38;89.50;98161.47;4952964;28;20035;-62
2020/12/24 09:37:48;;;;;;;31.30;22.97;;;;;;;7.42;90.14;98152.91;4956789;28;20077;-62
2020/12/24 09:40:14;;;;;;;35.27;25.13;;;;;;;7.47;90.03;98151.13;4956587;29;20023;-60
2020/12/24 09:42:39;;;;;;;40.20;27.87;;;;;;;7.52;90.42;98149.34;4952619;28;20364;-60
2020/12/24 09:45:05;;;;;;;31.20;25.53;;;;;;;7.56;90.22;98145.88;4955220;28;20106;-61
2020/12/24 09:47:30;;;;;;;33.10;25.00;;;;;;;7.57;90.05;98145.03;4964398;28;20417;-61
2020/12/24 09:49:56;;;;;;;34.80;24.27;;;;;;;7.57;90.13;98142.47;4938201;29;20078;-60
2020/12/24 09:52:21;;;;;;;32.53;22.53;;;;;;;7.56;89.75;98140.78;4955957;28;20027;-61
2020/12/24 09:54:46;;;;;;;47.43;34.83;;;;;;;7.52;89.94;98138.28;4955229;29;20035;-61
2020/12/24 09:57:12;;;;;;;44.27;29.83;;;;;;;7.49;90.25;98135.81;4949682;28;20093;-61
2020/12/24 09:59:37;;;;;;;37.93;25.90;;;;;;;7.39;90.26;98129.13;4941919;29;20034;-62
2020/12/24 10:02:03;;;;;;;37.60;25.80;;;;;;;7.37;90.88;98128.34;4963777;28;20047;-64
2020/12/24 10:04:28;;;;;;;38.97;26.43;;;;;;;7.49;90.59;98125.59;4968530;28;20023;-64
2020/12/24 10:06:53;;;;;;;43.67;30.17;;;;;;;7.56;90.83;98117.81;4963078;28;20085;-63
2020/12/24 10:09:19;;;;;;;42.57;29.03;;;;;;;7.63;90.92;98110.94;4948645;29;20043;-63
2020/12/24 10:11:46;;;;;;;37.93;28.10;;;;;;;7.58;90.25;98117.81;4949516;28;20034;-64
2020/12/24 10:14:12;;;;;;;36.67;27.83;;;;;;;7.62;90.82;98119.44;4944282;29;20122;-64
2020/12/24 10:16:37;;;;;;;40.30;28.43;;;;;;;7.69;90.38;98126.97;4953250;28;20182;-64
2020/12/24 10:19:03;;;;;;;39.13;28.87;;;;;;;7.69;90.32;98123.56;4947255;28;20460;-65
2020/12/24 10:21:29;;;;;;;37.07;27.43;;;;;;;7.76;91.06;98123.47;4954822;28;20433;-63
2020/12/24 10:23:54;;;;;;;47.43;34.17;;;;;;;7.78;90.50;98126.00;4963488;28;20063;-63
2020/12/24 10:26:20;;;;;;;62.07;51.87;;;;;;;7.76;90.38;98120.09;4960455;28;20031;-64
2020/12/24 10:28:46;;;;;;;63.07;48.37;;;;;;;7.81;90.29;98111.47;4960787;28;20122;-63
2020/12/24 10:31:11;;;;;;;45.90;36.63;;;;;;;7.82;90.34;98118.25;4949027;28;20182;-63
2020/12/24 10:33:37;;;;;;;44.40;33.53;;;;;;;7.79;90.13;98115.78;4970075;28;20031;-63
2020/12/24 10:36:03;;;;;;;39.97;30.87;;;;;;;7.76;89.96;98112.44;4960421;28;20531;-64
2020/12/24 10:38:28;;;;;;;40.47;30.27;;;;;;;7.73;90.21;98102.25;4972319;28;20035;-63
2020/12/24 10:40:54;;;;;;;34.80;28.90;;;;;;;7.79;89.94;98104.72;4968852;28;20178;-64
2020/12/24 10:43:19;;;;;;;40.97;28.63;;;;;;;7.80;89.71;98091.09;4969725;28;20111;-64
2020/12/24 10:45:45;;;;;;;35.93;27.33;;;;;;;7.78;89.88;98080.06;4975697;28;20042;-64
2020/12/24 10:48:10;;;;;;;38.53;28.83;;;;;;;7.76;90.55;98079.25;4972191;28;20117;-64
2020/12/24 10:50:36;;;;;;;42.20;31.60;;;;;;;7.79;90.09;98089.41;4969599;28;20062;-64
2020/12/24 10:53:01;;;;;;;38.77;31.87;;;;;;;7.68;90.07;98089.56;4965035;28;20110;-63
2020/12/24 10:55:27;;;;;;;38.07;29.17;;;;;;;7.74;90.99;98096.28;4963036;28;20038;-64
2020/12/24 10:57:52;;;;;;;40.93;28.97;;;;;;;7.82;90.43;98084.25;4958282;28;20476;-64
2020/12/24 11:00:17;;;;;;;38.17;27.80;;;;;;;7.88;90.40;98090.97;4956308;28;20035;-63
2020/12/24 11:02:43;;;;;;;44.90;28.77;;;;;;;7.82;90.14;98084.25;4962475;28;20031;-63
2020/12/24 11:05:08;;;;;;;35.37;27.87;;;;;;;7.89;89.80;98077.34;4967667;28;20081;-63
2020/12/24 11:07:34;;;;;;;60.43;36.37;;;;;;;7.87;90.28;98084.16;4962661;28;20074;-63
2020/12/24 11:09:59;;;;;;;56.73;39.57;;;;;;;7.91;90.39;98073.03;4963906;28;20106;-63
2020/12/24 11:12:25;;;;;;;42.27;32.83;;;;;;;7.82;89.68;98066.38;4960601;28;20203;-63
2020/12/24 11:14:50;;;;;;;40.43;29.97;;;;;;;7.72;90.53;98064.88;4963699;28;20026;-63
2020/12/24 11:17:16;;;;;;;40.33;30.00;;;;;;;7.80;91.04;98057.94;4965103;28;20042;-64
2020/12/24 11:19:42;;;;;;;40.20;30.67;;;;;;;7.86;91.01;98073.13;4964828;28;20094;-63
2020/12/24 11:22:07;;;;;;;31.83;25.13;;;;;;;7.97;91.02;98066.13;4956255;28;20059;-64
2020/12/24 11:24:32;;;;;;;33.17;24.97;;;;;;;8.02;90.24;98061.75;4937593;28;20031;-63